Ansonia, Connecticut
Current Conditions -  °F | °C
As of 6:50 AM on Thursday 29 Jan 2015 (Local Time) from KOXC Reporting Station
Few Clouds Few Clouds  
Wind Chill: -20°   Ceiling: Unl
Heat Index: -14°   Visibility: 10mi
Dew Point: -26°   Wind: 7mph
Humidity: 37%   Direction: 360°N
Pressure: 30.26"   Gusts: NA
Location:  41.34°N, 73.08°W
Report Text: KOXC 291150Z 36006KT 10SM FEW250 M14/M26 A3026
Loading
Personal Weather Stations






























Interactive Weather Map New forecast layout! Learn more

10-Day Weather Forecast

Advertisements
Track Severe Weather on mobile